Time;durP1;ratioP1;P1;durP2;ratioP2;P2;SDS_P1;SDS_P2;PMS_P1;PMS_P2;Temp;Humidity;BMP_temperature;BMP_pressure;BME280_temperature;BME280_humidity;BME280_pressure;Samples;Min_cycle;Max_cycle;Signal;HPM_P1;HPM_P2
2023/01/03 00:01:16;;;;;;;11.10;4.50;;;4.80;99.90;;;;;;4733792;30;20053;-76
2023/01/03 00:03:42;;;;;;;9.75;4.35;;;4.60;99.90;;;;;;4719208;30;20055;-77
2023/01/03 00:06:16;;;;;;;10.05;4.47;;;4.50;99.90;;;;;;4733561;30;20140;-80
2023/01/03 00:08:42;;;;;;;7.30;4.65;;;4.40;99.90;;;;;;4733905;30;20557;-76
2023/01/03 00:11:13;;;;;;;10.20;4.57;;;4.40;99.90;;;;;;4733775;30;20064;-76
2023/01/03 00:13:39;;;;;;;12.48;5.45;;;4.30;99.90;;;;;;4733523;30;20169;-76
2023/01/03 00:16:05;;;;;;;9.52;4.65;;;4.50;99.90;;;;;;4719223;30;20084;-76
2023/01/03 00:18:30;;;;;;;9.88;4.93;;;4.40;99.90;;;;;;4733644;30;20482;-76
2023/01/03 00:21:03;;;;;;;12.00;4.38;;;4.50;99.90;;;;;;4704695;30;20518;-76
2023/01/03 00:23:29;;;;;;;10.00;4.05;;;4.20;99.90;;;;;;4733269;30;20140;-76
2023/01/03 00:25:54;;;;;;;11.43;4.13;;;4.60;99.90;;;;;;4733356;30;20060;-76
2023/01/03 00:28:20;;;;;;;11.75;3.58;;;4.20;99.90;;;;;;4733563;30;20508;-76
2023/01/03 00:30:46;;;;;;;12.60;4.15;;;4.20;99.90;;;;;;4733746;30;20055;-76
2023/01/03 00:33:11;;;;;;;9.43;4.00;;;4.70;99.90;;;;;;4733292;30;20131;-76
2023/01/03 00:35:37;;;;;;;10.27;4.00;;;4.30;99.90;;;;;;4733650;30;20049;-76
2023/01/03 00:38:03;;;;;;;8.27;3.40;;;4.20;99.90;;;;;;4733516;30;20060;-76
2023/01/03 00:40:28;;;;;;;7.85;3.80;;;4.20;99.90;;;;;;4704407;30;20056;-76
2023/01/03 00:45:38;;;;;;;8.60;3.72;;;4.10;99.90;;;;;;4720862;30;20501;-77
2023/01/03 00:48:04;;;;;;;8.63;3.83;;;4.20;99.90;;;;;;4718908;30;20052;-77
2023/01/03 00:50:29;;;;;;;8.38;3.80;;;4.30;99.90;;;;;;4733050;30;20052;-76
2023/01/03 00:52:55;;;;;;;7.70;3.55;;;4.20;99.90;;;;;;4718718;30;20204;-76
2023/01/03 00:55:21;;;;;;;10.02;4.00;;;4.10;99.90;;;;;;4733326;30;20502;-76
2023/01/03 00:57:46;;;;;;;9.25;3.90;;;4.10;99.90;;;;;;4733524;30;20049;-76
2023/01/03 01:00:13;;;;;;;8.18;3.38;;;4.10;99.90;;;;;;4718885;30;20072;-77
2023/01/03 01:02:38;;;;;;;8.20;3.42;;;4.10;99.90;;;;;;4732835;30;20405;-76
2023/01/03 01:05:04;;;;;;;9.48;3.40;;;4.00;99.90;;;;;;4718899;30;20059;-76
2023/01/03 01:07:30;;;;;;;7.88;3.63;;;4.00;99.90;;;;;;4733178;30;20068;-76
2023/01/03 01:09:55;;;;;;;9.60;3.30;;;4.30;99.90;;;;;;4733305;30;20060;-77
2023/01/03 01:12:21;;;;;;;7.43;3.33;;;4.00;99.90;;;;;;4732788;30;20132;-76
2023/01/03 01:14:47;;;;;;;7.68;3.47;;;3.90;99.90;;;;;;4733308;30;20052;-76
2023/01/03 01:17:12;;;;;;;10.20;3.45;;;3.80;99.90;;;;;;4718844;30;20061;-76
2023/01/03 01:19:41;;;;;;;5.07;3.33;;;3.80;99.90;;;;;;4733157;30;20493;-76
2023/01/03 01:22:08;;;;;;;6.82;3.45;;;3.70;99.90;;;;;;4718721;30;20402;-77
2023/01/03 01:24:34;;;;;;;7.20;3.45;;;3.90;99.90;;;;;;4732842;30;20414;-76
2023/01/03 01:27:00;;;;;;;9.52;3.92;;;3.80;99.90;;;;;;4718722;30;20056;-76
2023/01/03 01:29:26;;;;;;;13.20;4.53;;;4.30;99.90;;;;;;4703967;30;20079;-76
2023/01/03 01:31:51;;;;;;;9.85;4.15;;;4.10;99.90;;;;;;4733099;30;20049;-75
2023/01/03 01:34:17;;;;;;;9.68;4.53;;;4.70;99.90;;;;;;4733084;30;20075;-76
2023/01/03 01:36:44;;;;;;;10.90;5.40;;;3.80;99.90;;;;;;4732736;30;20084;-76
2023/01/03 01:39:15;;;;;;;22.92;8.02;;;3.90;99.90;;;;;;4721172;30;20060;-76
2023/01/03 01:44:45;;;;;;;16.58;8.15;;;3.90;99.90;;;;;;4736046;30;20504;-76
2023/01/03 01:47:20;;;;;;;15.70;9.10;;;4.00;99.90;;;;;;4736104;30;20048;-76
2023/01/03 01:49:48;;;;;;;20.45;8.77;;;3.90;99.90;;;;;;4735865;30;20071;-76
2023/01/03 01:52:17;;;;;;;24.55;9.65;;;4.00;99.90;;;;;;4735562;30;20072;-76
2023/01/03 01:54:43;;;;;;;24.98;10.82;;;4.20;99.90;;;;;;4735836;30;20052;-76
2023/01/03 01:57:14;;;;;;;22.10;11.82;;;4.10;99.90;;;;;;4735983;30;20489;-76
2023/01/03 01:59:40;;;;;;;20.70;9.63;;;4.30;99.90;;;;;;4735709;30;20064;-76
2023/01/03 02:02:06;;;;;;;20.80;10.65;;;4.40;99.90;;;;;;4735578;30;20044;-78
2023/01/03 02:04:35;;;;;;;19.05;9.48;;;4.40;99.90;;;;;;4721230;30;20144;-76
2023/01/03 02:07:01;;;;;;;11.77;7.85;;;4.50;99.90;;;;;;4735748;30;20343;-77
2023/01/03 02:09:31;;;;;;;12.85;6.55;;;4.70;99.90;;;;;;4735427;30;20057;-77
2023/01/03 02:15:17;;;;;;;11.20;5.32;;;4.40;99.90;;;;;;4735718;30;20053;-77
2023/01/03 02:17:48;;;;;;;14.30;6.30;;;4.40;99.90;;;;;;4735506;30;20064;-77
2023/01/03 02:20:20;;;;;;;17.60;6.53;;;4.40;99.90;;;;;;4735321;30;20586;-76
2023/01/03 02:23:22;;;;;;;15.13;7.18;;;4.30;99.90;;;;;;4735354;30;20048;-76
2023/01/03 02:25:57;;;;;;;21.27;9.07;;;4.40;99.90;;;;;;4735361;30;20474;-77
2023/01/03 02:28:47;;;;;;;19.55;9.30;;;4.40;99.90;;;;;;4735350;30;20063;-77
2023/01/03 02:31:26;;;;;;;20.70;9.32;;;4.50;99.90;;;;;;4735308;30;20075;-77
2023/01/03 02:34:22;;;;;;;20.17;8.98;;;4.60;99.90;;;;;;4720272;30;20067;-77
2023/01/03 02:37:14;;;;;;;17.10;8.40;;;4.80;99.90;;;;;;4734569;30;20067;-77
2023/01/03 02:39:47;;;;;;;16.83;8.02;;;4.60;99.90;;;;;;4734960;30;20071;-77
2023/01/03 02:45:14;;;;;;;12.02;6.07;;;4.70;99.90;;;;;;4735061;30;20064;-78
2023/01/03 02:47:48;;;;;;;14.00;6.00;;;4.70;99.90;;;;;;4734947;30;20058;-77
2023/01/03 02:50:15;;;;;;;11.23;5.78;;;4.80;99.90;;;;;;4734639;30;20061;-76
2023/01/03 02:52:42;;;;;;;11.40;5.97;;;4.70;99.90;;;;;;4719802;30;20418;-77
2023/01/03 02:55:16;;;;;;;10.10;5.13;;;4.70;99.90;;;;;;4720367;30;20143;-77
2023/01/03 02:57:53;;;;;;;13.65;5.00;;;4.80;99.90;;;;;;4720301;30;20068;-76
2023/01/03 03:00:26;;;;;;;17.20;6.63;;;4.70;99.90;;;;;;4734906;30;20413;-76
2023/01/03 03:02:58;;;;;;;10.65;5.10;;;5.00;99.90;;;;;;4719757;30;20056;-76
2023/01/03 03:05:30;;;;;;;16.30;5.45;;;4.70;99.90;;;;;;4734629;30;20060;-77
2023/01/03 03:07:56;;;;;;;13.00;5.43;;;4.70;99.90;;;;;;4734463;30;20088;-76
2023/01/03 03:13:45;;;;;;;13.15;5.82;;;5.00;99.90;;;;;;4734298;30;20092;-76
2023/01/03 03:16:47;;;;;;;14.00;6.18;;;4.90;99.90;;;;;;4700106;30;20068;-77
2023/01/03 03:25:14;;;;;;;11.63;5.95;;;4.70;99.90;;;;;;4734444;30;20418;-77
2023/01/03 03:30:29;;;;;;;12.65;5.65;;;5.00;99.90;;;;;;4734443;30;20286;-77
2023/01/03 03:33:00;;;;;;;11.00;5.32;;;4.60;99.90;;;;;;4733850;30;20155;-76
2023/01/03 03:35:31;;;;;;;19.52;6.63;;;4.40;99.90;;;;;;4719884;30;20057;-76
2023/01/03 03:37:59;;;;;;;15.35;6.47;;;4.30;99.90;;;;;;4719573;30;20065;-76
2023/01/03 03:46:20;;;;;;;15.60;6.57;;;4.30;99.90;;;;;;4734006;30;20056;-77
2023/01/03 03:51:38;;;;;;;13.70;6.43;;;4.10;99.90;;;;;;4733609;30;20064;-76
2023/01/03 03:54:09;;;;;;;13.98;6.45;;;3.80;99.90;;;;;;4733735;30;20057;-75
2023/01/03 03:56:36;;;;;;;13.02;6.88;;;4.20;99.90;;;;;;4733997;30;20080;-76
2023/01/03 03:59:06;;;;;;;13.60;6.72;;;3.80;99.90;;;;;;4733560;30;20075;-75
2023/01/03 04:01:35;;;;;;;16.40;7.33;;;3.80;99.90;;;;;;4733232;30;20060;-76
2023/01/03 04:04:09;;;;;;;14.57;7.28;;;4.40;99.90;;;;;;4733591;30;20091;-76
2023/01/03 04:06:44;;;;;;;15.82;7.90;;;3.70;99.90;;;;;;4733890;30;20456;-76
2023/01/03 04:09:10;;;;;;;15.68;7.10;;;3.70;99.90;;;;;;4733816;30;20160;-77
2023/01/03 04:11:36;;;;;;;13.63;7.38;;;3.60;99.90;;;;;;4733592;30;20049;-76
2023/01/03 04:14:01;;;;;;;17.33;8.35;;;3.50;99.90;;;;;;4704519;30;20060;-76
2023/01/03 04:16:27;;;;;;;33.20;15.38;;;3.50;99.90;;;;;;4718989;30;20107;-76
2023/01/03 04:18:53;;;;;;;32.90;15.82;;;3.60;99.90;;;;;;4733755;30;20048;-77
2023/01/03 04:21:18;;;;;;;34.33;16.08;;;3.80;99.90;;;;;;4733620;30;20071;-77
2023/01/03 04:23:44;;;;;;;32.15;15.32;;;3.40;99.90;;;;;;4733467;30;20056;-77
2023/01/03 04:26:10;;;;;;;34.42;14.55;;;3.40;99.90;;;;;;4733389;30;20052;-77
2023/01/03 04:28:35;;;;;;;29.70;14.52;;;3.50;99.90;;;;;;4733565;30;20139;-78
2023/01/03 04:31:01;;;;;;;35.75;13.50;;;3.60;99.90;;;;;;4733699;30;20063;-77
2023/01/03 04:33:27;;;;;;;29.17;12.80;;;4.00;99.90;;;;;;4733322;30;20088;-77
2023/01/03 04:35:53;;;;;;;29.85;13.05;;;3.90;99.90;;;;;;4731230;30;20055;-79
2023/01/03 04:38:18;;;;;;;29.50;12.95;;;3.30;99.90;;;;;;4731356;30;20049;-77
2023/01/03 04:40:44;;;;;;;29.85;13.05;;;3.60;99.90;;;;;;4716840;30;20148;-77
2023/01/03 04:46:00;;;;;;;29.95;12.93;;;3.30;99.90;;;;;;4735713;30;20267;-77
2023/01/03 04:48:26;;;;;;;32.40;13.30;;;3.20;99.90;;;;;;4748375;30;20082;-77
2023/01/03 04:50:53;;;;;;;29.58;12.57;;;3.50;99.90;;;;;;4748148;30;20501;-76
2023/01/03 04:53:21;;;;;;;30.75;13.05;;;3.50;99.90;;;;;;4734287;30;20051;-76
2023/01/03 04:55:48;;;;;;;26.42;11.48;;;3.10;99.90;;;;;;4748577;30;20048;-77
2023/01/03 04:58:14;;;;;;;29.58;12.35;;;3.40;99.90;;;;;;4748500;30;20060;-76
2023/01/03 05:00:40;;;;;;;28.38;12.02;;;3.00;99.90;;;;;;4748453;30;20056;-76
2023/01/03 05:03:06;;;;;;;28.45;11.98;;;3.00;99.90;;;;;;4733961;30;20052;-76
2023/01/03 05:05:32;;;;;;;26.80;12.40;;;3.10;99.90;;;;;;4733623;30;20133;-76
2023/01/03 05:07:57;;;;;;;31.52;12.05;;;3.00;99.90;;;;;;4733773;30;20559;-76
2023/01/03 05:10:23;;;;;;;30.40;11.60;;;3.30;99.90;;;;;;4748659;30;20048;-75
2023/01/03 05:12:58;;;;;;;29.40;11.35;;;3.30;99.90;;;;;;4750426;30;20044;-78
2023/01/03 05:15:33;;;;;;;28.70;12.40;;;3.00;99.90;;;;;;4738227;30;20052;-77
2023/01/03 05:17:59;;;;;;;27.25;11.88;;;3.10;99.90;;;;;;4751551;30;20517;-77
2023/01/03 05:26:04;;;;;;;39.38;14.48;;;3.00;99.90;;;;;;4752636;30;20064;-77
2023/01/03 05:28:30;;;;;;;35.83;14.20;;;3.00;99.90;;;;;;4751835;30;20071;-77
2023/01/03 05:30:57;;;;;;;43.33;15.40;;;3.00;99.90;;;;;;4752785;30;20060;-77
2023/01/03 05:33:24;;;;;;;35.67;13.98;;;3.80;99.90;;;;;;4751447;30;20387;-77
2023/01/03 05:35:49;;;;;;;42.95;14.77;;;3.40;99.90;;;;;;4752568;30;20056;-77
2023/01/03 05:38:15;;;;;;;39.58;15.13;;;3.40;99.90;;;;;;4753582;30;20067;-76
2023/01/03 05:40:41;;;;;;;38.83;16.05;;;3.50;99.90;;;;;;4753701;30;20059;-76
2023/01/03 05:43:08;;;;;;;39.28;14.75;;;3.60;99.90;;;;;;4753543;30;20060;-76
2023/01/03 05:45:38;;;;;;;40.63;15.48;;;3.40;99.90;;;;;;4752563;30;20062;-77
2023/01/03 05:48:04;;;;;;;43.78;16.15;;;3.40;99.90;;;;;;4751035;30;20056;-78
2023/01/03 05:50:30;;;;;;;41.08;14.90;;;3.50;99.90;;;;;;4750866;30;20056;-77
2023/01/03 05:52:56;;;;;;;42.92;17.10;;;4.00;99.90;;;;;;4736652;30;20048;-77
2023/01/03 05:55:22;;;;;;;45.20;16.20;;;3.60;99.90;;;;;;4751017;30;20048;-76
2023/01/03 05:57:48;;;;;;;41.30;15.93;;;3.80;99.90;;;;;;4750876;30;20056;-76
2023/01/03 06:00:14;;;;;;;43.97;15.70;;;4.00;99.90;;;;;;4736469;30;20102;-77
2023/01/03 06:02:40;;;;;;;48.88;16.83;;;4.00;99.90;;;;;;4751260;30;20083;-77
2023/01/03 06:05:07;;;;;;;37.35;15.18;;;4.10;99.90;;;;;;4750756;30;20397;-79
2023/01/03 06:07:35;;;;;;;50.25;18.55;;;4.10;99.90;;;;;;4751210;30;20056;-77
2023/01/03 06:10:01;;;;;;;46.60;19.58;;;4.20;99.90;;;;;;4750761;30;20070;-78
2023/01/03 06:12:27;;;;;;;40.38;17.08;;;4.10;99.90;;;;;;4750975;30;20052;-76
2023/01/03 06:14:53;;;;;;;47.13;18.55;;;4.20;99.90;;;;;;4753182;30;20100;-77
2023/01/03 06:20:03;;;;;;;46.65;20.05;;;4.30;99.90;;;;;;4753193;30;20059;-76
2023/01/03 06:22:28;;;;;;;54.88;19.95;;;4.30;99.90;;;;;;4752861;30;20060;-75
2023/01/03 06:24:54;;;;;;;48.47;21.40;;;4.30;99.90;;;;;;4752380;30;20140;-76
2023/01/03 06:27:20;;;;;;;49.35;21.35;;;4.40;99.90;;;;;;4738171;30;20058;-76
2023/01/03 06:29:45;;;;;;;52.40;20.67;;;4.30;99.90;;;;;;4752985;30;20099;-77
2023/01/03 06:32:11;;;;;;;51.10;19.75;;;4.70;99.90;;;;;;4737860;30;20486;-77
2023/01/03 06:34:37;;;;;;;42.63;18.65;;;4.40;99.90;;;;;;4737827;30;20052;-77
2023/01/03 06:37:03;;;;;;;43.13;16.45;;;4.40;99.90;;;;;;4723567;30;20091;-78
2023/01/03 06:39:29;;;;;;;36.85;16.40;;;4.70;99.90;;;;;;4737920;30;20102;-76
2023/01/03 06:41:54;;;;;;;37.20;15.95;;;4.30;99.90;;;;;;4752684;30;20136;-76
2023/01/03 06:44:20;;;;;;;33.72;15.07;;;4.40;99.90;;;;;;4737795;30;20497;-76
2023/01/03 06:53:10;;;;;;;38.05;15.20;;;4.30;99.90;;;;;;4752557;30;20085;-76
2023/01/03 06:55:15;;;;;;;39.70;14.50;;;4.00;99.90;;;;;;4752280;30;20056;-76
2023/01/03 06:57:41;;;;;;;34.20;14.55;;;4.10;99.90;;;;;;4752347;30;20052;-76
2023/01/03 07:00:07;;;;;;;31.35;14.38;;;4.70;99.90;;;;;;4723009;30;20052;-76
2023/01/03 07:02:33;;;;;;;40.10;15.35;;;3.70;99.90;;;;;;4751918;30;20099;-76
2023/01/03 07:04:58;;;;;;;37.22;14.95;;;3.80;99.90;;;;;;4737567;30;20137;-76
2023/01/03 07:07:24;;;;;;;39.25;15.48;;;3.60;99.90;;;;;;4751833;30;20060;-76
2023/01/03 07:09:50;;;;;;;39.30;15.23;;;3.60;99.90;;;;;;4752074;30;20490;-77
2023/01/03 07:15:04;;;;;;;36.97;16.02;;;3.70;99.90;;;;;;4752121;30;20494;-76
2023/01/03 07:17:29;;;;;;;35.60;15.20;;;3.50;99.90;;;;;;4751906;30;20059;-76
2023/01/03 07:19:55;;;;;;;35.38;14.27;;;3.90;99.90;;;;;;4752096;30;20124;-76
2023/01/03 07:22:21;;;;;;;41.92;15.68;;;4.20;99.90;;;;;;4751762;30;20121;-76
2023/01/03 07:24:46;;;;;;;38.33;15.82;;;3.40;99.90;;;;;;4736966;30;20056;-76
2023/01/03 07:27:13;;;;;;;44.20;17.25;;;3.40;99.90;;;;;;4722106;30;20048;-76
2023/01/03 07:29:38;;;;;;;40.67;15.35;;;3.10;99.90;;;;;;4751074;30;20063;-76
2023/01/03 07:32:04;;;;;;;37.42;14.38;;;3.60;99.90;;;;;;4736409;30;20052;-76
2023/01/03 07:34:30;;;;;;;47.55;16.13;;;3.20;99.90;;;;;;4721491;30;20075;-76
2023/01/03 07:36:55;;;;;;;36.30;14.73;;;3.60;99.90;;;;;;4736122;30;20056;-76
2023/01/03 07:39:21;;;;;;;36.85;15.70;;;3.90;99.90;;;;;;4751684;30;20088;-76
2023/01/03 07:44:31;;;;;;;40.22;16.80;;;3.10;99.90;;;;;;4751475;30;20063;-76
2023/01/03 07:46:57;;;;;;;44.25;16.25;;;3.10;99.90;;;;;;4751443;30;20052;-76
2023/01/03 07:49:22;;;;;;;47.17;18.42;;;3.00;99.90;;;;;;4751491;30;20052;-76
2023/01/03 07:51:48;;;;;;;50.05;18.10;;;3.00;99.90;;;;;;4751106;30;20147;-76
2023/01/03 07:54:14;;;;;;;45.63;19.02;;;2.80;99.90;;;;;;4751556;30;20059;-76
2023/01/03 07:56:39;;;;;;;48.13;18.40;;;3.10;99.90;;;;;;4722268;30;20206;-76
2023/01/03 07:59:05;;;;;;;45.10;17.67;;;2.80;99.90;;;;;;4751345;30;20052;-76
2023/01/03 08:01:32;;;;;;;44.55;17.30;;;3.00;99.90;;;;;;4751353;30;20052;-76
2023/01/03 08:03:58;;;;;;;47.63;18.20;;;3.30;99.90;;;;;;4751489;30;20453;-76
2023/01/03 08:06:24;;;;;;;50.22;19.02;;;2.60;99.90;;;;;;4751280;30;20122;-76
2023/01/03 08:14:19;;;;;;;49.70;19.33;;;2.60;99.90;;;;;;4751341;30;20414;-76
2023/01/03 08:16:45;;;;;;;48.40;19.98;;;3.20;99.90;;;;;;4736511;30;20064;-76
2023/01/03 08:19:10;;;;;;;42.05;17.40;;;2.50;99.90;;;;;;4751311;30;20060;-76
2023/01/03 08:21:36;;;;;;;46.38;18.95;;;2.80;99.90;;;;;;4736451;30;20402;-76
2023/01/03 08:24:02;;;;;;;49.53;19.90;;;3.30;99.90;;;;;;4736329;30;20095;-76
2023/01/03 08:26:28;;;;;;;47.33;19.27;;;2.60;99.90;;;;;;4736325;30;20056;-76
2023/01/03 08:28:53;;;;;;;51.90;19.13;;;2.90;99.90;;;;;;4751066;30;20058;-77
2023/01/03 08:31:25;;;;;;;47.40;20.10;;;2.80;99.90;;;;;;4736673;30;20056;-77
2023/01/03 08:33:50;;;;;;;;;;;3.70;99.90;;;;;;4736650;30;20532;-77
2023/01/03 08:36:18;;;;;;;49.83;19.73;;;3.30;99.90;;;;;;4751258;30;20027;-76
2023/01/03 08:38:55;;;;;;;46.92;17.65;;;2.90;99.90;;;;;;4751010;30;20060;-76
2023/01/03 08:41:24;;;;;;;51.15;20.20;;;3.00;99.90;;;;;;4736293;30;20068;-78
2023/01/03 08:43:51;;;;;;;52.47;19.67;;;3.10;99.90;;;;;;4736241;30;20498;-76
2023/01/03 08:46:17;;;;;;;43.03;18.63;;;3.00;99.90;;;;;;4751478;30;20052;-76
2023/01/03 08:48:44;;;;;;;46.47;19.33;;;3.20;99.90;;;;;;4754614;30;20501;-76
2023/01/03 08:51:10;;;;;;;51.97;21.35;;;3.10;99.90;;;;;;4754103;30;20061;-77
2023/01/03 08:53:36;;;;;;;53.08;22.05;;;3.40;99.90;;;;;;4754151;30;20098;-77
2023/01/03 08:56:01;;;;;;;48.47;19.60;;;3.10;99.90;;;;;;4754381;30;20044;-79
2023/01/03 08:58:27;;;;;;;47.80;19.83;;;2.90;99.90;;;;;;4754654;30;20056;-78
2023/01/03 09:00:53;;;;;;;41.38;18.75;;;3.10;99.90;;;;;;4739738;30;20048;-78
2023/01/03 09:03:19;;;;;;;41.60;18.20;;;3.20;99.90;;;;;;4739500;30;20071;-78
2023/01/03 09:05:45;;;;;;;42.15;17.80;;;3.20;99.90;;;;;;4754395;30;20052;-78
2023/01/03 09:08:11;;;;;;;44.63;18.58;;;3.20;99.90;;;;;;4739768;30;20051;-78
2023/01/03 09:10:38;;;;;;;76.40;18.50;;;3.10;99.90;;;;;;4754240;30;20052;-78
2023/01/03 09:13:04;;;;;;;47.92;14.85;;;3.20;99.90;;;;;;4739765;30;20056;-79
2023/01/03 09:15:30;;;;;;;61.55;15.40;;;2.70;99.90;;;;;;4752229;30;20129;-79
2023/01/03 09:17:56;;;;;;;60.08;17.23;;;2.60;99.90;;;;;;4752118;30;20048;-79
2023/01/03 09:20:21;;;;;;;62.58;17.73;;;2.70;99.90;;;;;;4753058;30;20463;-79
2023/01/03 09:22:47;;;;;;;53.40;16.65;;;2.60;99.90;;;;;;4737084;30;20063;-79
2023/01/03 09:25:14;;;;;;;62.38;16.17;;;2.50;99.90;;;;;;4752053;30;20059;-80
2023/01/03 09:27:45;;;;;;;73.80;15.75;;;2.60;99.90;;;;;;4751573;30;20532;-80
2023/01/03 09:30:12;;;;;;;81.50;18.23;;;2.60;99.90;;;;;;4737493;30;20380;-76
2023/01/03 09:32:38;;;;;;;56.83;16.73;;;2.60;99.90;;;;;;4751513;30;20117;-79
2023/01/03 09:35:04;;;;;;;76.15;18.05;;;3.60;99.90;;;;;;4751617;30;20060;-79
2023/01/03 09:37:30;;;;;;;77.57;18.17;;;2.50;99.90;;;;;;4737208;30;20102;-78
2023/01/03 09:39:55;;;;;;;78.13;18.25;;;2.80;99.90;;;;;;4736518;30;20503;-79
2023/01/03 09:45:20;;;;;;;79.78;17.33;;;2.90;99.90;;;;;;4752857;30;20060;-77
2023/01/03 09:47:46;;;;;;;72.05;16.45;;;2.80;99.90;;;;;;4753466;30;20118;-78
2023/01/03 09:50:20;;;;;;;94.93;17.88;;;2.80;99.90;;;;;;4753485;30;20140;-78
2023/01/03 10:04:24;;;;;;;109.32;21.52;;;3.40;99.90;;;;;;4753437;30;20063;-79
2023/01/03 10:07:11;;;;;;;122.00;22.67;;;3.60;99.90;;;;;;4752151;30;20052;-78
2023/01/03 10:10:01;;;;;;;134.68;25.70;;;3.60;99.90;;;;;;4753454;30;20104;-78
2023/01/03 10:12:58;;;;;;;116.88;23.80;;;3.80;99.90;;;;;;4753263;30;20501;-78
2023/01/03 10:15:48;;;;;;;166.75;25.13;;;3.70;99.90;;;;;;4753246;30;20452;-79
2023/01/03 10:18:35;;;;;;;199.48;26.92;;;3.80;99.90;;;;;;4753331;30;20052;-79
2023/01/03 10:21:11;;;;;;;150.75;25.25;;;4.10;99.90;;;;;;4753161;30;20060;-78
2023/01/03 10:23:36;;;;;;;208.60;28.52;;;4.10;99.90;;;;;;4753386;30;20098;-78
2023/01/03 10:26:10;;;;;;;170.00;24.60;;;4.20;99.90;;;;;;4753156;30;20099;-78
2023/01/03 10:28:39;;;;;;;162.27;25.90;;;4.10;99.90;;;;;;4753244;30;20056;-80
2023/01/03 10:31:27;;;;;;;181.02;28.23;;;4.60;99.90;;;;;;4752707;30;20055;-78
2023/01/03 10:33:52;;;;;;;174.80;28.25;;;4.50;99.90;;;;;;4752628;30;20094;-78
2023/01/03 10:36:20;;;;;;;166.57;27.67;;;4.80;99.90;;;;;;4753098;30;20052;-79
2023/01/03 10:38:46;;;;;;;186.48;30.58;;;5.10;99.90;;;;;;4752808;30;20052;-78
2023/01/03 10:41:51;;;;;;;169.15;29.95;;;4.80;99.90;;;;;;4752944;30;20055;-78
2023/01/03 10:44:28;;;;;;;137.75;29.33;;;4.70;99.90;;;;;;4735392;30;20048;-79
2023/01/03 10:46:58;;;;;;;140.05;30.02;;;4.90;99.90;;;;;;4422118;30;10000311;-79
2023/01/03 10:49:29;;;;;;;120.22;29.70;;;5.40;99.90;;;;;;4749624;30;20048;-79
2023/01/03 10:52:16;;;;;;;155.32;31.92;;;5.10;99.90;;;;;;4734709;30;20156;-79
2023/01/03 10:54:55;;;;;;;126.70;31.98;;;5.10;99.90;;;;;;4750106;30;20064;-78
2023/01/03 10:57:43;;;;;;;138.88;30.30;;;5.40;99.90;;;;;;4735899;30;20095;-79
2023/01/03 11:00:29;;;;;;;127.78;31.25;;;5.30;99.90;;;;;;4750294;30;20467;-79
2023/01/03 11:03:17;;;;;;;125.97;32.00;;;5.20;99.90;;;;;;4750213;30;20056;-78
2023/01/03 11:05:45;;;;;;;109.85;30.77;;;5.20;99.90;;;;;;4732832;30;20049;-79
2023/01/03 11:08:13;;;;;;;106.80;30.05;;;5.50;99.90;;;;;;4732180;30;20056;-78
2023/01/03 11:10:50;;;;;;;111.50;31.25;;;5.60;99.90;;;;;;4732356;30;20506;-78
2023/01/03 11:13:36;;;;;;;101.35;28.65;;;5.50;99.90;;;;;;4732446;30;20143;-78
2023/01/03 11:16:13;;;;;;;96.75;28.58;;;5.60;99.90;;;;;;4732240;30;20053;-78
2023/01/03 11:18:40;;;;;;;94.63;28.25;;;5.70;99.90;;;;;;4731903;30;20100;-80
2023/01/03 11:21:22;;;;;;;85.13;27.85;;;5.70;99.90;;;;;;4732153;30;20530;-80
2023/01/03 11:24:03;;;;;;;85.88;27.90;;;5.60;99.90;;;;;;4732427;30;20152;-79
2023/01/03 11:26:59;;;;;;;89.78;27.08;;;5.70;99.90;;;;;;4732491;30;20156;-79
2023/01/03 11:29:44;;;;;;;77.45;24.38;;;5.80;99.90;;;;;;4732367;30;20057;-79
2023/01/03 11:32:48;;;;;;;76.90;25.60;;;5.80;99.90;;;;;;4731533;30;20052;-79
2023/01/03 11:35:19;;;;;;;78.38;25.65;;;6.00;99.90;;;;;;4731105;30;20095;-79
2023/01/03 11:38:08;;;;;;;77.70;27.20;;;6.00;99.90;;;;;;4732179;30;20100;-80
2023/01/03 11:40:53;;;;;;;68.95;24.58;;;6.20;99.90;;;;;;4731579;30;20052;-80
2023/01/03 11:43:39;;;;;;;67.18;24.55;;;6.10;99.90;;;;;;4731468;30;20064;-79
2023/01/03 11:46:32;;;;;;;68.63;24.73;;;6.30;99.90;;;;;;4735050;30;20064;-79
2023/01/03 11:49:31;;;;;;;70.40;25.45;;;6.40;99.90;;;;;;4731804;30;20049;-79
2023/01/03 11:51:57;;;;;;;68.80;22.95;;;6.20;99.90;;;;;;4731535;30;20064;-78
2023/01/03 11:55:00;;;;;;;64.63;24.17;;;6.20;99.90;;;;;;4738880;30;20055;-78
2023/01/03 11:57:49;;;;;;;72.38;24.67;;;6.20;99.90;;;;;;4750923;30;20122;-79
2023/01/03 12:00:55;;;;;;;64.60;24.55;;;6.40;99.90;;;;;;4731576;30;20258;-78
2023/01/03 12:03:32;;;;;;;69.20;24.88;;;6.20;99.90;;;;;;4731628;30;20071;-78
2023/01/03 12:06:43;;;;;;;67.05;25.63;;;6.30;99.90;;;;;;4731063;30;20091;-80
2023/01/03 12:09:35;;;;;;;72.80;25.00;;;6.30;99.90;;;;;;4717071;30;20210;-79
2023/01/03 12:12:07;;;;;;;67.72;24.80;;;6.20;99.90;;;;;;4731580;30;20060;-78
2023/01/03 12:14:42;;;;;;;67.85;25.00;;;6.20;99.90;;;;;;4731832;30;20048;-79
2023/01/03 12:17:29;;;;;;;71.68;26.00;;;6.30;99.90;;;;;;4731451;30;20057;-80
2023/01/03 12:20:19;;;;;;;76.70;26.75;;;6.30;99.90;;;;;;4731413;30;20067;-79
2023/01/03 12:23:03;;;;;;;72.53;25.98;;;6.40;99.90;;;;;;4716594;30;20092;-80
2023/01/03 12:25:33;;;;;;;70.60;25.65;;;6.50;99.90;;;;;;4731759;30;20118;-79
2023/01/03 12:28:09;;;;;;;70.22;24.45;;;6.50;99.90;;;;;;4731047;30;20088;-79
2023/01/03 12:30:51;;;;;;;67.05;25.65;;;6.50;99.90;;;;;;4731179;30;20140;-80
2023/01/03 12:33:52;;;;;;;76.05;26.98;;;6.60;99.90;;;;;;4716691;30;20060;-79
2023/01/03 12:36:44;;;;;;;70.53;26.85;;;6.60;99.90;;;;;;4733921;30;20422;-79
2023/01/03 12:39:46;;;;;;;58.28;19.25;;;6.60;99.90;;;;;;4731389;30;20056;-79
2023/01/03 12:42:27;;;;;;;63.55;22.77;;;6.70;99.90;;;;;;4731263;30;20076;-79
2023/01/03 12:45:26;;;;;;;63.95;26.15;;;6.60;99.90;;;;;;4731063;30;20061;-78
2023/01/03 12:47:58;;;;;;;63.42;25.55;;;6.70;99.90;;;;;;4753397;30;20555;-78
2023/01/03 12:50:44;;;;;;;65.60;25.13;;;6.90;99.90;;;;;;4766353;30;20055;-79
2023/01/03 12:53:34;;;;;;;64.93;25.92;;;6.80;99.90;;;;;;4760301;30;20525;-78
2023/01/03 12:56:19;;;;;;;55.38;21.40;;;6.80;99.90;;;;;;4748253;30;20422;-78
2023/01/03 12:59:22;;;;;;;66.07;26.05;;;6.80;99.90;;;;;;4748798;30;20398;-79
2023/01/03 13:01:53;;;;;;;64.15;23.92;;;7.00;99.90;;;;;;4749940;30;20052;-80
2023/01/03 13:04:30;;;;;;;52.45;22.13;;;6.90;99.90;;;;;;4748516;30;20052;-78
2023/01/03 13:07:02;;;;;;;56.28;24.40;;;6.90;99.90;;;;;;4748352;30;20093;-79
2023/01/03 13:09:35;;;;;;;65.03;26.02;;;7.00;99.90;;;;;;4734004;30;20056;-79
2023/01/03 13:12:25;;;;;;;58.80;24.02;;;6.90;99.90;;;;;;4748890;30;20527;-78
2023/01/03 13:15:02;;;;;;;57.72;24.08;;;7.00;99.90;;;;;;4748512;30;20064;-79
2023/01/03 13:17:30;;;;;;;55.00;23.52;;;6.90;99.90;;;;;;4748669;30;20091;-77
2023/01/03 13:20:15;;;;;;;42.25;18.40;;;7.00;99.90;;;;;;4748335;30;20064;-78
2023/01/03 13:22:49;;;;;;;53.65;24.75;;;7.00;99.90;;;;;;4748759;30;20064;-80
2023/01/03 13:25:35;;;;;;;49.70;20.95;;;7.00;99.90;;;;;;4748473;30;20429;-79
2023/01/03 13:28:21;;;;;;;58.05;23.50;;;7.10;99.90;;;;;;4748638;30;20123;-79
2023/01/03 13:30:47;;;;;;;47.92;20.55;;;7.00;99.90;;;;;;4744560;30;20118;-78
2023/01/03 13:33:17;;;;;;;54.35;23.33;;;7.10;99.90;;;;;;4749760;30;20525;-78
2023/01/03 13:35:43;;;;;;;48.10;21.70;;;7.20;99.90;;;;;;4751868;30;20060;-78
2023/01/03 13:38:18;;;;;;;56.60;23.75;;;7.10;99.90;;;;;;4751708;30;20363;-79
2023/01/03 13:40:49;;;;;;;52.15;21.90;;;7.00;99.90;;;;;;4737390;30;20117;-78
2023/01/03 13:43:26;;;;;;;48.67;18.60;;;7.10;99.90;;;;;;4753793;30;20398;-78
2023/01/03 13:45:55;;;;;;;54.55;21.05;;;7.00;99.90;;;;;;4753842;30;20060;-78
2023/01/03 13:48:30;;;;;;;49.17;20.63;;;7.20;99.90;;;;;;4738966;30;20154;-78
2023/01/03 13:51:13;;;;;;;45.55;19.23;;;7.20;99.90;;;;;;4753651;30;20063;-79
2023/01/03 13:53:53;;;;;;;53.00;19.02;;;7.10;99.90;;;;;;4753545;30;20052;-77
2023/01/03 13:56:22;;;;;;;50.47;21.35;;;7.20;99.90;;;;;;4738833;30;20091;-78
2023/01/03 13:59:00;;;;;;;46.65;19.80;;;7.20;99.90;;;;;;4753551;30;20052;-78
2023/01/03 14:01:32;;;;;;;48.85;20.38;;;7.30;99.90;;;;;;4753413;30;20088;-78
2023/01/03 14:04:16;;;;;;;27.70;13.07;;;7.20;99.90;;;;;;4753552;30;20538;-78
2023/01/03 14:07:07;;;;;;;37.28;16.45;;;7.30;99.90;;;;;;4738806;30;20139;-78
2023/01/03 14:09:52;;;;;;;46.72;18.63;;;7.30;99.90;;;;;;4753343;30;20056;-77
2023/01/03 14:13:05;;;;;;;47.78;18.88;;;7.30;99.90;;;;;;4753287;30;20078;-78
2023/01/03 14:15:32;;;;;;;43.10;17.40;;;7.20;99.90;;;;;;4753168;30;20133;-78
2023/01/03 14:18:10;;;;;;;45.17;18.42;;;7.30;99.90;;;;;;4753334;30;20096;-78
2023/01/03 14:20:38;;;;;;;41.08;16.65;;;7.40;99.90;;;;;;4738415;30;20101;-78